Phoenix-Mesa-Gateway Airport
KIWA : now visible

Airfield :











YOU CAN JOIN US ON...

 
LOGIN :

Register | Disclaimer

   EN    FR    IT 

 









Legend :    VFR   Marginal VFR   IFR   Intensive IFR   Very Intensive IFR
Visi :
Ceiling :
>= 8 km
>= 3000ft
5 to 8 km
1000 to 3000 ft
1500m to 5 km
500 to 1000 ft
800 to 1500m
200 to 500 ft
< 800m
< 200 ft
Symbols :   Thunderstorms  Fog  Heavy snow  Heavy precipitations  Wind > 20 kt






- Airport Elevation : 1382 ft


KIWA - Phoenix-Mesa-Gateway

CURRENT METAR :
  • 250855Z AUTO 12007KT 10SM CLR 24/07 A2984 RMK AO2 T02400071

EXPIRED METARs :
  • 250835Z AUTO 13006KT 10SM CLR 24/07 A2985 RMK AO2 T02400074
  • 250815Z AUTO 14004KT 10SM CLR 25/08 A2985 RMK AO2 T02450080
  • 250755Z AUTO 16004KT 10SM CLR 25/07 A2984 RMK AO2 T02510072
  • 250735Z AUTO 17004KT 10SM CLR 25/07 A2984 RMK AO2 T02550066
  • 250715Z AUTO 16006KT 10SM CLR 25/07 A2983 RMK AO2 T02510071
  • 250647Z 03003KT 10SM SKC 27/04 A2983

TAF KIWA
Valid from the 25 at 06:00 until the 26 at 06:00 UTC


250540Z 2506/2606 13006KT P6SM SKC
FM251800 28006KT P6SM SKC
FM260400 VRB03KT P6SM SKC AMD LTD TO CLD VIS AND WIND TIL 251200
KZAB FIR / North America



MET'MAP, your aeronautical weather chart ! - Copyright ORBIFLY December 2007 - Disclaimer

ORBIFLY MET'MAP TEAM :

Programming & Development : Alexandra Zaïnal
Concept & original design : Baudouin d'Aumeries
Assistance for programming : Marc-Olivier Méhu
Technical & hardware support : Manuel Goepfert

Contact : metmap@orbifly.com




SOURCES & CREDITS :

   NOAA       Earth
Advisory